Time;durP1;ratioP1;P1;durP2;ratioP2;P2;SDS_P1;SDS_P2;PMS_P1;PMS_P2;Temp;Humidity;BMP_temperature;BMP_pressure;BME280_temperature;BME280_humidity;BME280_pressure;Samples;Min_cycle;Max_cycle;Signal;HPM_P1;HPM_P2
2022/05/12 00:01:32;;;;;;;0.80;0.80;;;20.80;99.90;;;;;;5034452;28;20347;-63
2022/05/12 00:04:00;;;;;;;0.80;0.80;;;20.70;99.90;;;;;;5034256;28;20320;-63
2022/05/12 00:06:27;;;;;;;0.90;0.90;;;20.80;99.90;;;;;;5034277;28;20291;-64
2022/05/12 00:08:54;;;;;;;0.80;0.80;;;20.90;99.90;;;;;;5031940;28;20283;-63
2022/05/12 00:11:21;;;;;;;0.80;0.80;;;21.00;99.90;;;;;;5037171;28;20236;-63
2022/05/12 00:13:48;;;;;;;0.93;0.90;;;20.90;99.90;;;;;;5036858;28;20259;-63
2022/05/12 00:16:15;;;;;;;0.90;0.90;;;20.90;99.90;;;;;;5028229;28;20280;-63
2022/05/12 00:18:42;;;;;;;1.48;0.80;;;20.90;99.90;;;;;;5028060;28;20223;-63
2022/05/12 00:21:10;;;;;;;1.25;1.00;;;21.00;99.90;;;;;;5026710;28;20211;-64
2022/05/12 00:23:37;;;;;;;0.80;0.80;;;21.20;99.90;;;;;;5030265;28;20679;-63
2022/05/12 00:26:04;;;;;;;0.70;0.70;;;21.20;99.90;;;;;;5031458;28;20204;-64
2022/05/12 00:28:31;;;;;;;0.55;0.55;;;21.30;99.90;;;;;;5031482;28;20261;-64
2022/05/12 00:30:59;;;;;;;1.00;0.82;;;21.50;99.90;;;;;;5030396;28;20304;-63
2022/05/12 00:33:28;;;;;;;0.88;0.88;;;21.50;99.90;;;;;;5028714;28;20607;-63
2022/05/12 00:35:56;;;;;;;0.80;0.80;;;21.60;99.90;;;;;;5031974;28;20197;-63
2022/05/12 00:38:24;;;;;;;0.77;0.77;;;21.60;99.90;;;;;;5026605;28;20296;-63
2022/05/12 00:40:51;;;;;;;0.70;0.70;;;21.70;99.90;;;;;;5030271;28;20209;-62
2022/05/12 00:43:37;;;;;;;0.80;0.80;;;21.90;99.90;;;;;;5030034;28;20221;-63
2022/05/12 00:46:05;;;;;;;0.68;0.68;;;21.90;99.90;;;;;;5024969;28;20205;-64
2022/05/12 00:48:32;;;;;;;0.98;0.98;;;21.90;99.90;;;;;;5026363;28;20319;-62
2022/05/12 00:50:59;;;;;;;0.52;0.52;;;21.90;99.90;;;;;;5031582;28;20295;-64
2022/05/12 00:53:29;;;;;;;0.80;0.80;;;22.00;99.90;;;;;;5024986;28;20311;-62
2022/05/12 00:55:59;;;;;;;0.70;0.70;;;22.20;99.90;;;;;;5032906;28;20205;-63
2022/05/12 00:58:27;;;;;;;1.27;0.75;;;22.20;99.90;;;;;;5033302;28;20211;-63
2022/05/12 01:00:54;;;;;;;0.70;0.70;;;22.40;99.90;;;;;;5028518;28;20295;-63
2022/05/12 01:03:25;;;;;;;0.70;0.70;;;22.50;99.90;;;;;;4987712;28;1100579;-64
2022/05/12 01:05:52;;;;;;;0.70;0.70;;;22.60;99.90;;;;;;5032839;28;20743;-64
2022/05/12 01:08:21;;;;;;;0.80;0.80;;;22.80;99.90;;;;;;5029534;28;20207;-64
2022/05/12 01:10:54;;;;;;;0.77;0.70;;;22.70;99.90;;;;;;5026749;28;20300;-64
2022/05/12 01:13:21;;;;;;;0.70;0.70;;;22.80;99.90;;;;;;5021279;28;20223;-62
2022/05/12 01:15:54;;;;;;;1.48;0.98;;;22.80;99.90;;;;;;5031905;28;20667;-63
2022/05/12 01:18:21;;;;;;;0.80;0.80;;;22.80;99.90;;;;;;5034166;28;20225;-64
2022/05/12 01:20:50;;;;;;;0.60;0.60;;;22.90;99.90;;;;;;5033154;28;20258;-63
2022/05/12 01:23:22;;;;;;;0.80;0.80;;;22.90;99.90;;;;;;5034166;28;20339;-64
2022/05/12 01:25:49;;;;;;;1.00;0.90;;;22.90;99.90;;;;;;5034086;28;20239;-64
2022/05/12 01:28:16;;;;;;;0.73;0.73;;;22.90;99.90;;;;;;5034068;28;20207;-64
2022/05/12 01:30:43;;;;;;;0.90;0.90;;;22.90;99.90;;;;;;5032811;28;20204;-64
2022/05/12 01:33:10;;;;;;;0.80;0.80;;;23.00;99.90;;;;;;5033974;28;20236;-63
2022/05/12 01:35:38;;;;;;;0.90;0.90;;;23.00;99.90;;;;;;5033602;28;20708;-63
2022/05/12 01:38:05;;;;;;;0.80;0.80;;;23.00;99.90;;;;;;5033829;28;20231;-63
2022/05/12 01:40:33;;;;;;;1.00;1.00;;;23.00;99.90;;;;;;5033076;28;20299;-64
2022/05/12 01:43:00;;;;;;;0.80;0.80;;;23.00;99.90;;;;;;5033466;28;20710;-63
2022/05/12 01:45:27;;;;;;;1.20;1.10;;;23.00;99.90;;;;;;5033830;28;20271;-63
2022/05/12 01:47:54;;;;;;;0.90;0.90;;;23.10;99.90;;;;;;5033412;28;20200;-64
2022/05/12 01:50:22;;;;;;;0.85;0.85;;;23.10;99.90;;;;;;5033146;28;20211;-63
2022/05/12 01:52:49;;;;;;;0.80;0.80;;;23.10;99.90;;;;;;5033103;28;20232;-64
2022/05/12 01:55:18;;;;;;;2.70;1.00;;;23.10;99.90;;;;;;5033295;28;20210;-64
2022/05/12 01:57:47;;;;;;;1.02;0.93;;;23.20;99.90;;;;;;5033178;28;20706;-64
2022/05/12 02:00:18;;;;;;;0.80;0.80;;;23.10;99.90;;;;;;5032946;28;20201;-63
2022/05/12 02:02:45;;;;;;;0.70;0.70;;;23.10;99.90;;;;;;5032586;28;20232;-63
2022/05/12 02:05:12;;;;;;;0.73;0.73;;;23.10;99.90;;;;;;5033302;28;20303;-63
2022/05/12 02:07:39;;;;;;;0.98;0.95;;;23.10;99.90;;;;;;5033325;28;20307;-64
2022/05/12 02:10:08;;;;;;;0.95;0.90;;;23.00;99.90;;;;;;5032505;28;20427;-63
2022/05/12 02:12:35;;;;;;;2.60;1.10;;;23.00;99.90;;;;;;5032852;28;20230;-63
2022/05/12 02:15:05;;;;;;;1.00;1.00;;;23.00;99.90;;;;;;5032739;28;20745;-63
2022/05/12 02:17:32;;;;;;;0.90;0.90;;;22.90;99.90;;;;;;5033018;28;20224;-63
2022/05/12 02:19:59;;;;;;;1.17;1.08;;;22.90;99.90;;;;;;5032176;28;20702;-64
2022/05/12 02:22:26;;;;;;;0.75;0.75;;;22.90;99.90;;;;;;5032173;28;20216;-64
2022/05/12 02:24:53;;;;;;;0.90;0.90;;;22.80;99.90;;;;;;5032457;28;20210;-64
2022/05/12 02:27:20;;;;;;;0.80;0.80;;;22.70;99.90;;;;;;5032764;28;20738;-63
2022/05/12 02:29:47;;;;;;;0.90;0.90;;;22.70;99.90;;;;;;5032052;28;20208;-63
2022/05/12 02:32:15;;;;;;;0.80;0.80;;;22.60;99.90;;;;;;5032862;28;20201;-63
2022/05/12 02:34:42;;;;;;;0.80;0.80;;;22.50;99.90;;;;;;5032726;28;20591;-63
2022/05/12 02:37:09;;;;;;;0.80;0.80;;;22.50;99.90;;;;;;5032895;28;20231;-63
2022/05/12 02:39:40;;;;;;;0.80;0.80;;;22.50;99.90;;;;;;5032839;28;20247;-63
2022/05/12 02:42:08;;;;;;;0.90;0.90;;;22.50;99.90;;;;;;5032496;28;20583;-63
2022/05/12 02:44:35;;;;;;;1.20;1.02;;;22.40;99.90;;;;;;5032443;28;20303;-64
2022/05/12 02:47:02;;;;;;;1.52;0.93;;;22.30;99.90;;;;;;5032980;28;20211;-64
2022/05/12 02:49:30;;;;;;;1.00;1.00;;;22.20;99.90;;;;;;5034730;28;20208;-63
2022/05/12 02:51:57;;;;;;;0.95;0.95;;;22.10;99.90;;;;;;5032533;28;20244;-64
2022/05/12 02:54:24;;;;;;;1.38;1.17;;;22.10;99.90;;;;;;5032846;28;20235;-63
2022/05/12 02:56:54;;;;;;;1.00;1.00;;;22.00;99.90;;;;;;5032240;28;20343;-64
2022/05/12 02:59:21;;;;;;;0.98;0.98;;;21.90;99.90;;;;;;5032086;28;20200;-63
2022/05/12 03:01:48;;;;;;;0.70;0.70;;;21.80;99.90;;;;;;5031793;28;20204;-62
2022/05/12 03:04:15;;;;;;;0.90;0.90;;;21.80;99.90;;;;;;5031883;28;20233;-63
2022/05/12 03:06:44;;;;;;;0.75;0.75;;;21.80;99.90;;;;;;5031766;28;20822;-63
2022/05/12 03:09:11;;;;;;;0.80;0.80;;;21.70;99.90;;;;;;5031267;28;20303;-63
2022/05/12 03:11:39;;;;;;;0.90;0.90;;;21.70;99.90;;;;;;5031129;28;20299;-64
2022/05/12 03:14:06;;;;;;;1.00;1.00;;;21.70;99.90;;;;;;5031354;28;20228;-63
2022/05/12 03:16:33;;;;;;;0.93;0.90;;;21.70;99.90;;;;;;5031676;28;20758;-64
2022/05/12 03:19:00;;;;;;;0.68;0.68;;;21.70;99.90;;;;;;5031640;28;20786;-64
2022/05/12 03:21:27;;;;;;;1.55;0.90;;;21.70;99.90;;;;;;5030961;28;20202;-64
2022/05/12 03:23:55;;;;;;;0.70;0.70;;;21.70;99.90;;;;;;5031822;28;20259;-63
2022/05/12 03:26:23;;;;;;;0.82;0.82;;;21.60;99.90;;;;;;5032363;28;20300;-64
2022/05/12 03:28:50;;;;;;;0.80;0.80;;;21.60;99.90;;;;;;5031643;28;20293;-63
2022/05/12 03:31:18;;;;;;;0.82;0.75;;;21.60;99.90;;;;;;5031234;28;20212;-63
2022/05/12 03:33:46;;;;;;;0.70;0.70;;;21.60;99.90;;;;;;5031349;28;20224;-63
2022/05/12 03:36:15;;;;;;;0.82;0.82;;;21.70;99.90;;;;;;5030544;28;20219;-64
2022/05/12 03:38:42;;;;;;;0.90;0.90;;;21.60;99.90;;;;;;5014799;28;20213;-62
2022/05/12 03:41:11;;;;;;;0.80;0.80;;;21.60;99.90;;;;;;5011356;28;20201;-63
2022/05/12 03:46:23;;;;;;;0.70;0.70;;;21.50;99.90;;;;;;5011996;28;20204;-63
2022/05/12 03:48:50;;;;;;;0.80;0.80;;;21.50;99.90;;;;;;5011923;28;20213;-63
2022/05/12 03:51:17;;;;;;;0.73;0.73;;;21.40;99.90;;;;;;5011403;28;20239;-64
2022/05/12 03:53:45;;;;;;;0.82;0.82;;;21.50;99.90;;;;;;5011973;28;20225;-63
2022/05/12 03:56:13;;;;;;;0.90;0.90;;;21.40;99.90;;;;;;5012129;28;20328;-62
2022/05/12 03:58:40;;;;;;;0.75;0.75;;;21.40;99.90;;;;;;5011400;28;20308;-62
2022/05/12 04:01:07;;;;;;;0.63;0.63;;;21.40;99.90;;;;;;5010832;28;20201;-62
2022/05/12 04:03:35;;;;;;;0.82;0.82;;;21.30;99.90;;;;;;5011293;28;20324;-63
2022/05/12 04:06:02;;;;;;;0.90;0.90;;;21.30;99.90;;;;;;5011546;28;20609;-63
2022/05/12 04:08:30;;;;;;;0.80;0.80;;;21.40;99.90;;;;;;5011446;28;20208;-63
2022/05/12 04:10:57;;;;;;;0.90;0.90;;;21.30;99.90;;;;;;5011001;28;20236;-62
2022/05/12 04:13:25;;;;;;;0.90;0.90;;;21.30;99.90;;;;;;5011254;28;20707;-62
2022/05/12 04:15:52;;;;;;;0.90;0.90;;;21.20;99.90;;;;;;5011920;28;20444;-63
2022/05/12 04:18:19;;;;;;;0.82;0.82;;;21.20;99.90;;;;;;5011727;28;20227;-64
2022/05/12 04:20:46;;;;;;;0.80;0.80;;;21.20;99.90;;;;;;5010696;28;20237;-63
2022/05/12 04:23:13;;;;;;;1.00;1.00;;;21.20;99.90;;;;;;5010969;28;20325;-63
2022/05/12 04:25:40;;;;;;;1.02;0.93;;;21.10;99.90;;;;;;5011527;28;20190;-63
2022/05/12 04:28:07;;;;;;;0.80;0.80;;;21.10;99.90;;;;;;5019072;28;20211;-63
2022/05/12 04:30:36;;;;;;;0.90;0.90;;;21.10;99.90;;;;;;5031107;28;20603;-63
2022/05/12 04:35:44;;;;;;;1.00;1.00;;;21.00;99.90;;;;;;5035079;28;20666;-63
2022/05/12 04:38:11;;;;;;;0.90;0.90;;;21.10;99.90;;;;;;5034402;28;20220;-64
2022/05/12 04:40:39;;;;;;;0.90;0.90;;;21.00;99.90;;;;;;5030367;28;20214;-62
2022/05/12 04:43:06;;;;;;;0.73;0.73;;;21.00;99.90;;;;;;5028093;28;20702;-63
2022/05/12 04:45:36;;;;;;;1.95;1.45;;;21.00;99.90;;;;;;5032756;28;20313;-63
2022/05/12 04:48:05;;;;;;;1.17;1.17;;;21.10;99.90;;;;;;5042298;28;20207;-63
2022/05/12 04:50:36;;;;;;;1.02;1.00;;;21.10;99.90;;;;;;5033238;28;20283;-64
2022/05/12 04:53:03;;;;;;;0.95;0.85;;;21.10;99.90;;;;;;5031140;28;20320;-64
2022/05/12 04:55:33;;;;;;;0.90;0.90;;;21.10;99.90;;;;;;5029242;28;20612;-63
2022/05/12 04:58:00;;;;;;;1.48;1.08;;;21.00;99.90;;;;;;5026126;28;20340;-63
2022/05/12 05:00:29;;;;;;;0.80;0.80;;;20.90;99.90;;;;;;5033591;28;20208;-63
2022/05/12 05:02:58;;;;;;;0.70;0.70;;;20.90;99.90;;;;;;5026377;28;20707;-63
2022/05/12 05:05:25;;;;;;;0.65;0.65;;;20.90;99.90;;;;;;5034055;28;20200;-63
2022/05/12 05:07:52;;;;;;;0.63;0.63;;;20.90;99.90;;;;;;5029047;28;20603;-63
2022/05/12 05:10:19;;;;;;;1.23;0.80;;;20.80;99.90;;;;;;5028031;28;20675;-63
2022/05/12 05:12:46;;;;;;;1.00;1.00;;;20.70;99.90;;;;;;5019632;28;20311;-63
2022/05/12 05:15:15;;;;;;;0.80;0.80;;;20.60;99.90;;;;;;5028989;28;20204;-62
2022/05/12 05:17:42;;;;;;;0.75;0.75;;;20.70;99.90;;;;;;5018137;28;20636;-63
2022/05/12 05:20:14;;;;;;;1.17;1.08;;;20.70;99.90;;;;;;5024940;28;20663;-63
2022/05/12 05:22:41;;;;;;;1.15;1.13;;;20.70;99.90;;;;;;5032144;28;20307;-62
2022/05/12 05:25:09;;;;;;;1.13;1.02;;;20.70;99.90;;;;;;5033034;28;20737;-64
2022/05/12 05:27:37;;;;;;;1.15;0.80;;;20.70;99.90;;;;;;5033825;28;20638;-65
2022/05/12 05:30:05;;;;;;;0.77;0.77;;;20.70;99.90;;;;;;5030705;28;20205;-63
2022/05/12 05:32:32;;;;;;;0.82;0.82;;;20.80;99.90;;;;;;5036677;28;20232;-63
2022/05/12 05:34:59;;;;;;;0.80;0.80;;;20.90;99.90;;;;;;5037307;28;20264;-63
2022/05/12 05:37:27;;;;;;;1.35;0.80;;;21.00;99.90;;;;;;5037750;28;20239;-62
2022/05/12 05:39:54;;;;;;;0.80;0.80;;;21.10;99.90;;;;;;5032627;28;20205;-63
2022/05/12 05:42:22;;;;;;;0.85;0.85;;;21.00;99.90;;;;;;5024968;28;20200;-62
2022/05/12 05:44:49;;;;;;;0.98;0.88;;;21.00;99.90;;;;;;5033563;28;20276;-63
2022/05/12 05:47:17;;;;;;;0.75;0.75;;;21.00;99.90;;;;;;5038333;28;20204;-63
2022/05/12 05:49:44;;;;;;;0.50;0.50;;;21.00;99.90;;;;;;5029690;28;20387;-62
2022/05/12 05:54:57;;;;;;;0.88;0.65;;;21.10;99.90;;;;;;5031325;28;20264;-64
2022/05/12 05:57:25;;;;;;;0.93;0.93;;;21.10;99.90;;;;;;5030704;28;20204;-63
2022/05/12 05:59:53;;;;;;;0.90;0.90;;;21.10;99.90;;;;;;5022605;28;20784;-63
2022/05/12 06:02:20;;;;;;;0.73;0.73;;;21.10;99.90;;;;;;5019650;28;20205;-64
2022/05/12 06:04:47;;;;;;;0.70;0.70;;;21.20;99.90;;;;;;5048755;28;20199;-63
2022/05/12 06:07:15;;;;;;;0.80;0.80;;;21.20;99.90;;;;;;5041616;28;20290;-63
2022/05/12 06:09:42;;;;;;;0.55;0.55;;;21.30;99.90;;;;;;5040312;28;20283;-62
2022/05/12 06:12:11;;;;;;;0.70;0.70;;;21.30;99.90;;;;;;5021916;28;20232;-64
2022/05/12 06:14:39;;;;;;;0.57;0.57;;;21.30;99.90;;;;;;5029992;28;20307;-63
2022/05/12 06:17:06;;;;;;;0.50;0.50;;;21.40;99.90;;;;;;5025255;28;20200;-63
2022/05/12 06:19:33;;;;;;;0.70;0.70;;;21.30;99.90;;;;;;5033444;28;20217;-62
2022/05/12 06:22:01;;;;;;;0.68;0.68;;;21.30;99.90;;;;;;5027348;28;20208;-63
2022/05/12 06:24:28;;;;;;;0.55;0.55;;;21.30;99.90;;;;;;5033865;28;20229;-62
2022/05/12 06:26:55;;;;;;;0.73;0.73;;;21.30;99.90;;;;;;5032696;28;20243;-63
2022/05/12 06:29:23;;;;;;;0.82;0.82;;;21.40;99.90;;;;;;5033001;28;20284;-63
2022/05/12 06:31:50;;;;;;;0.75;0.65;;;21.50;99.90;;;;;;5031526;28;20701;-63
2022/05/12 06:34:17;;;;;;;0.80;0.80;;;21.70;99.90;;;;;;5033341;28;20311;-63
2022/05/12 06:36:45;;;;;;;0.80;0.80;;;21.80;99.90;;;;;;5032972;28;20336;-63
2022/05/12 06:39:12;;;;;;;1.77;1.00;;;22.00;99.90;;;;;;5033014;28;20233;-64
2022/05/12 06:41:39;;;;;;;0.73;0.73;;;22.20;99.90;;;;;;5031726;28;20782;-62
2022/05/12 06:44:06;;;;;;;0.70;0.70;;;22.30;99.90;;;;;;5033867;28;20307;-63
2022/05/12 06:46:34;;;;;;;0.70;0.70;;;22.30;99.90;;;;;;5048100;28;20666;-62
2022/05/12 06:49:03;;;;;;;0.80;0.80;;;22.30;99.90;;;;;;5036502;28;20204;-64
2022/05/12 06:51:31;;;;;;;0.70;0.70;;;22.30;99.90;;;;;;5041240;28;20204;-64
2022/05/12 06:53:57;;;;;;;0.75;0.75;;;22.30;99.90;;;;;;5029000;28;20316;-64
2022/05/12 06:56:24;;;;;;;1.67;1.10;;;22.30;99.90;;;;;;5030886;28;20219;-62
2022/05/12 06:58:51;;;;;;;0.70;0.70;;;22.20;99.90;;;;;;5032271;28;20244;-64
2022/05/12 07:01:19;;;;;;;0.70;0.70;;;22.20;99.90;;;;;;5023729;28;20200;-63
2022/05/12 07:03:49;;;;;;;0.70;0.70;;;22.30;99.90;;;;;;5022368;28;20236;-63
2022/05/12 07:06:16;;;;;;;0.70;0.70;;;22.40;99.90;;;;;;5014838;28;20209;-64
2022/05/12 07:08:43;;;;;;;0.80;0.80;;;22.50;99.90;;;;;;5017127;28;20198;-63
2022/05/12 07:11:11;;;;;;;1.20;0.70;;;22.60;99.90;;;;;;5013709;28;20268;-64
2022/05/12 07:13:38;;;;;;;0.68;0.68;;;22.40;99.90;;;;;;5012871;28;20231;-64
2022/05/12 07:16:06;;;;;;;0.85;0.85;;;22.60;99.90;;;;;;5012345;28;20208;-64
2022/05/12 07:18:35;;;;;;;0.88;0.82;;;22.70;99.90;;;;;;5013818;28;20247;-64
2022/05/12 07:26:36;;;;;;;0.60;0.60;;;22.90;99.90;;;;;;5012579;28;20200;-64
2022/05/12 07:29:03;;;;;;;0.80;0.80;;;22.90;99.90;;;;;;5011906;28;20201;-63
2022/05/12 07:31:30;;;;;;;1.10;0.80;;;22.90;99.90;;;;;;5011701;28;20232;-65
2022/05/12 07:33:58;;;;;;;0.75;0.75;;;22.80;99.90;;;;;;5011678;28;20229;-63
2022/05/12 07:36:28;;;;;;;1.33;0.80;;;22.70;99.90;;;;;;5012314;28;20232;-64
2022/05/12 07:38:56;;;;;;;0.80;0.80;;;22.70;99.90;;;;;;5011993;28;20652;-63
2022/05/12 07:41:24;;;;;;;0.65;0.65;;;22.80;99.90;;;;;;5011084;28;20336;-63
2022/05/12 07:43:51;;;;;;;0.70;0.70;;;23.00;99.90;;;;;;5012373;28;20661;-63
2022/05/12 07:46:21;;;;;;;0.50;0.50;;;23.00;99.90;;;;;;5012040;28;20216;-64
2022/05/12 07:48:49;;;;;;;0.50;0.50;;;23.00;99.90;;;;;;5011783;28;20256;-64
2022/05/12 07:51:17;;;;;;;0.60;0.60;;;22.90;99.90;;;;;;5011713;28;20216;-64
2022/05/12 07:53:47;;;;;;;0.77;0.77;;;23.10;99.90;;;;;;5011826;28;20231;-64
2022/05/12 07:56:15;;;;;;;0.60;0.60;;;23.20;99.90;;;;;;5011650;28;20209;-64
2022/05/12 07:58:43;;;;;;;0.77;0.77;;;23.30;99.90;;;;;;5012008;28;20221;-64
2022/05/12 08:01:10;;;;;;;0.82;0.82;;;23.30;99.90;;;;;;5011266;28;20292;-63
2022/05/12 08:03:37;;;;;;;0.93;0.90;;;23.30;99.90;;;;;;5011790;28;20715;-63
2022/05/12 08:06:04;;;;;;;0.80;0.80;;;23.30;99.90;;;;;;5011693;28;20676;-64
2022/05/12 08:08:31;;;;;;;0.55;0.55;;;23.20;99.90;;;;;;5011784;28;20308;-65
2022/05/12 08:10:59;;;;;;;0.60;0.60;;;23.30;99.90;;;;;;5011401;28;20205;-64
2022/05/12 08:13:27;;;;;;;0.82;0.82;;;23.60;99.90;;;;;;5010720;28;20252;-63
2022/05/12 08:15:55;;;;;;;0.80;0.80;;;23.70;99.90;;;;;;5012491;28;20249;-64
2022/05/12 08:18:23;;;;;;;0.95;0.95;;;23.70;99.90;;;;;;5013365;28;20209;-63
2022/05/12 08:20:51;;;;;;;0.90;0.90;;;23.70;99.90;;;;;;5013630;28;20635;-64
2022/05/12 08:23:18;;;;;;;0.80;0.80;;;23.80;99.90;;;;;;5017003;28;20275;-64
2022/05/12 08:25:46;;;;;;;0.68;0.68;;;24.10;99.90;;;;;;5016129;28;20648;-64
2022/05/12 08:28:17;;;;;;;0.77;0.77;;;24.40;99.90;;;;;;5015327;28;20205;-64
2022/05/12 08:30:45;;;;;;;0.70;0.70;;;24.50;99.90;;;;;;5015140;28;20297;-64
2022/05/12 08:33:12;;;;;;;1.38;0.82;;;24.60;99.90;;;;;;5015434;28;20229;-64
2022/05/12 08:35:40;;;;;;;0.80;0.80;;;24.80;99.90;;;;;;5015558;28;20296;-64
2022/05/12 08:38:07;;;;;;;0.88;0.88;;;24.90;99.90;;;;;;5016499;28;20594;-63
2022/05/12 08:40:45;;;;;;;0.68;0.68;;;25.00;99.90;;;;;;5015974;28;20263;-63
2022/05/12 08:43:17;;;;;;;0.73;0.73;;;25.20;99.90;;;;;;5015575;28;20225;-63
2022/05/12 08:45:45;;;;;;;0.60;0.60;;;25.20;99.90;;;;;;5015254;28;20296;-63
2022/05/12 08:48:15;;;;;;;0.77;0.77;;;25.30;99.90;;;;;;5014854;28;20304;-62
2022/05/12 08:50:42;;;;;;;0.80;0.80;;;25.20;99.90;;;;;;5014338;28;20197;-63
2022/05/12 08:53:14;;;;;;;0.80;0.80;;;25.10;99.90;;;;;;5014538;28;20222;-63
2022/05/12 08:55:46;;;;;;;1.10;0.70;;;25.20;99.90;;;;;;5014983;28;20193;-65
2022/05/12 08:58:21;;;;;;;0.82;0.82;;;25.20;99.90;;;;;;5014520;28;20658;-64
2022/05/12 09:00:56;;;;;;;0.80;0.80;;;25.30;99.90;;;;;;5014100;28;20243;-63
2022/05/12 09:03:34;;;;;;;0.82;0.82;;;25.30;99.90;;;;;;5014518;28;20240;-64
2022/05/12 09:06:04;;;;;;;0.85;0.85;;;25.20;99.90;;;;;;5015063;28;20200;-64
2022/05/12 09:08:38;;;;;;;1.00;1.00;;;25.20;99.90;;;;;;5014806;28;20209;-64
2022/05/12 09:11:12;;;;;;;0.95;0.95;;;24.90;99.90;;;;;;5014136;28;20264;-63
2022/05/12 09:13:43;;;;;;;0.70;0.70;;;24.70;99.90;;;;;;5013439;28;20721;-65
2022/05/12 09:16:17;;;;;;;0.75;0.75;;;25.00;99.90;;;;;;5014425;28;20205;-63
2022/05/12 09:18:45;;;;;;;0.70;0.70;;;25.30;99.90;;;;;;5014300;28;20209;-64
2022/05/12 09:21:17;;;;;;;0.90;0.90;;;25.50;99.90;;;;;;5013740;28;20212;-64
2022/05/12 09:23:45;;;;;;;0.85;0.85;;;25.50;99.90;;;;;;5014799;28;20261;-65
2022/05/12 09:26:35;;;;;;;0.70;0.70;;;25.70;99.90;;;;;;5014281;28;20292;-63
2022/05/12 09:29:16;;;;;;;0.80;0.80;;;26.00;99.90;;;;;;5014199;28;20228;-65
2022/05/12 09:31:48;;;;;;;0.93;0.93;;;26.20;99.90;;;;;;5013805;28;20225;-64
2022/05/12 09:34:22;;;;;;;2.58;1.00;;;26.20;99.90;;;;;;5013347;28;20239;-64
2022/05/12 09:36:50;;;;;;;1.02;0.90;;;26.20;99.90;;;;;;5014222;28;20224;-64
2022/05/12 09:39:42;;;;;;;1.20;1.00;;;26.20;99.90;;;;;;5014193;28;20316;-64
2022/05/12 09:42:15;;;;;;;1.00;1.00;;;26.40;99.90;;;;;;5010114;28;20241;-65
2022/05/12 09:44:54;;;;;;;0.70;0.70;;;26.40;99.90;;;;;;5021462;28;20198;-64
2022/05/12 09:47:21;;;;;;;0.90;0.90;;;26.20;99.90;;;;;;5022109;28;20201;-64
2022/05/12 09:49:48;;;;;;;0.70;0.70;;;26.30;99.90;;;;;;5015136;28;20232;-64
2022/05/12 09:52:31;;;;;;;1.55;1.10;;;26.40;99.90;;;;;;5027316;28;20252;-64
2022/05/12 09:55:17;;;;;;;0.82;0.82;;;26.60;99.90;;;;;;5032530;28;20185;-64
2022/05/12 09:57:52;;;;;;;0.90;0.90;;;26.80;99.90;;;;;;5016036;28;20221;-65
2022/05/12 10:00:41;;;;;;;1.00;1.00;;;26.90;99.90;;;;;;5014141;28;20603;-65
2022/05/12 10:09:05;;;;;;;0.82;0.82;;;27.20;99.90;;;;;;5019818;28;20196;-64
2022/05/12 10:11:39;;;;;;;0.90;0.90;;;27.00;99.90;;;;;;5032545;28;20268;-64
2022/05/12 10:14:07;;;;;;;0.75;0.75;;;27.10;99.90;;;;;;5032444;28;20229;-63
2022/05/12 10:16:35;;;;;;;0.80;0.80;;;27.10;99.90;;;;;;5033244;28;20200;-64
2022/05/12 10:19:06;;;;;;;1.15;1.05;;;27.00;99.90;;;;;;5033247;28;20705;-64
2022/05/12 10:21:38;;;;;;;0.90;0.90;;;26.80;99.90;;;;;;5032751;28;20236;-63
2022/05/12 10:24:12;;;;;;;0.88;0.88;;;26.60;99.90;;;;;;5033125;28;20300;-64
2022/05/12 10:26:44;;;;;;;1.20;1.10;;;26.80;99.90;;;;;;5033128;28;20566;-64
2022/05/12 10:29:24;;;;;;;1.00;1.00;;;26.80;99.90;;;;;;5039939;28;20276;-65
2022/05/12 10:32:03;;;;;;;0.98;0.98;;;26.70;99.90;;;;;;5032578;28;20220;-64
2022/05/12 10:34:48;;;;;;;1.08;1.08;;;26.70;99.90;;;;;;5072517;22;20260;-69
2022/05/12 10:37:35;;;;;;;1.00;1.00;;;26.70;99.90;;;;;;5054387;28;20673;-70
2022/05/12 10:40:14;;;;;;;0.95;0.95;;;26.70;99.90;;;;;;5052334;28;20216;-68
2022/05/12 10:42:53;;;;;;;1.02;1.00;;;26.50;99.90;;;;;;5053426;28;20184;-70
2022/05/12 10:45:25;;;;;;;2.15;1.95;;;26.70;99.90;;;;;;5053007;28;20586;-68
2022/05/12 10:48:31;;;;;;;1.77;1.40;;;27.10;99.90;;;;;;5052986;28;20287;-69
2022/05/12 10:51:01;;;;;;;1.42;1.10;;;27.40;99.90;;;;;;5052012;28;20717;-69
2022/05/12 10:53:46;;;;;;;1.00;1.00;;;27.60;99.90;;;;;;5049489;28;20311;-72
2022/05/12 10:56:25;;;;;;;0.98;0.98;;;27.70;99.90;;;;;;5045281;28;20258;-70
2022/05/12 10:58:57;;;;;;;1.00;1.00;;;27.90;99.90;;;;;;5052708;28;20253;-70
2022/05/12 11:01:32;;;;;;;1.13;1.00;;;28.00;99.90;;;;;;5052152;28;20227;-71
2022/05/12 11:04:05;;;;;;;1.00;1.00;;;27.80;99.90;;;;;;5052674;28;20747;-70
2022/05/12 11:06:37;;;;;;;1.30;1.20;;;27.80;99.90;;;;;;5052596;28;20236;-70
2022/05/12 11:09:08;;;;;;;1.02;1.02;;;27.70;99.90;;;;;;5053634;28;20199;-69
2022/05/12 11:11:38;;;;;;;0.90;0.90;;;27.30;99.90;;;;;;5052551;28;20192;-71
2022/05/12 11:14:11;;;;;;;0.85;0.85;;;27.20;99.90;;;;;;5053174;28;20238;-70
2022/05/12 11:16:46;;;;;;;1.25;1.20;;;27.60;99.90;;;;;;5052627;28;20243;-70
2022/05/12 11:19:18;;;;;;;1.10;1.00;;;27.90;99.90;;;;;;5052127;28;20229;-69
2022/05/12 11:21:56;;;;;;;1.02;1.02;;;27.90;99.90;;;;;;5051934;28;20283;-70
2022/05/12 11:24:31;;;;;;;0.80;0.80;;;28.00;99.90;;;;;;5052008;28;20273;-71
2022/05/12 11:27:33;;;;;;;1.10;1.10;;;28.20;99.90;;;;;;5052132;28;20259;-70
2022/05/12 11:30:13;;;;;;;0.80;0.80;;;28.40;99.90;;;;;;5045271;28;20199;-70
2022/05/12 11:32:52;;;;;;;1.00;1.00;;;28.40;99.90;;;;;;5051897;28;20210;-71
2022/05/12 11:35:24;;;;;;;1.63;1.17;;;28.40;99.90;;;;;;5052448;28;20208;-69
2022/05/12 11:37:58;;;;;;;1.25;1.10;;;28.40;99.90;;;;;;5052014;28;20299;-69
2022/05/12 11:40:49;;;;;;;1.02;1.02;;;28.30;99.90;;;;;;5052985;28;20211;-72
2022/05/12 11:46:46;;;;;;;0.98;0.98;;;28.20;99.90;;;;;;5052258;28;20610;-70
2022/05/12 11:49:32;;;;;;;0.98;0.98;;;28.30;99.90;;;;;;5035397;28;20645;-70
2022/05/12 11:52:21;;;;;;;1.00;1.00;;;28.50;99.90;;;;;;5053138;28;20211;-71
2022/05/12 11:54:54;;;;;;;1.15;1.10;;;28.70;99.90;;;;;;5056967;28;20224;-69
2022/05/12 11:57:24;;;;;;;1.08;1.08;;;28.70;99.90;;;;;;5058272;28;20212;-69
2022/05/12 11:59:52;;;;;;;1.58;1.20;;;28.60;99.90;;;;;;5057607;28;20299;-70
2022/05/12 12:02:47;;;;;;;1.00;1.00;;;28.60;99.90;;;;;;5054689;28;20207;-72
2022/05/12 12:05:51;;;;;;;1.00;1.00;;;28.70;99.90;;;;;;5051985;28;20641;-70
2022/05/12 12:08:42;;;;;;;1.10;1.10;;;28.70;99.90;;;;;;5051706;28;20234;-70
2022/05/12 12:11:27;;;;;;;1.10;1.10;;;28.50;99.90;;;;;;5051103;28;20692;-72
2022/05/12 12:13:56;;;;;;;0.98;0.90;;;28.50;99.90;;;;;;5051926;28;20230;-71
2022/05/12 12:16:26;;;;;;;1.00;1.00;;;28.10;99.90;;;;;;5052179;28;20272;-70
2022/05/12 12:19:01;;;;;;;0.98;0.98;;;27.60;99.90;;;;;;5051966;28;20293;-69
2022/05/12 12:21:44;;;;;;;1.00;1.00;;;27.80;99.90;;;;;;5051225;28;20212;-70
2022/05/12 12:24:44;;;;;;;1.10;1.02;;;28.10;99.90;;;;;;5051753;28;20246;-69
2022/05/12 12:27:38;;;;;;;1.13;1.10;;;28.00;99.90;;;;;;5051965;28;20204;-70
2022/05/12 12:30:41;;;;;;;0.90;0.90;;;27.80;99.90;;;;;;5051771;28;20559;-70
2022/05/12 12:33:15;;;;;;;1.00;1.00;;;27.60;99.90;;;;;;5035046;28;20669;-68
2022/05/12 12:36:07;;;;;;;1.00;1.00;;;27.40;99.90;;;;;;5054057;28;20649;-70
2022/05/12 12:39:09;;;;;;;0.80;0.80;;;27.40;99.90;;;;;;5055864;28;20204;-71
2022/05/12 12:41:43;;;;;;;1.00;0.98;;;27.30;99.90;;;;;;5032426;28;20299;-71
2022/05/12 12:44:20;;;;;;;1.20;1.10;;;27.30;99.90;;;;;;5033218;28;20219;-71
2022/05/12 12:47:16;;;;;;;0.90;0.90;;;27.10;99.90;;;;;;5033401;28;20248;-70
2022/05/12 12:49:52;;;;;;;1.00;1.00;;;27.00;99.90;;;;;;5031651;28;20610;-69
2022/05/12 12:52:20;;;;;;;1.00;1.00;;;27.20;99.90;;;;;;5032455;28;20279;-69
2022/05/12 12:57:47;;;;;;;0.90;0.90;;;27.30;99.90;;;;;;5036114;28;20192;-69
2022/05/12 13:00:17;;;;;;;0.98;0.98;;;27.30;99.90;;;;;;5034141;28;20208;-70
2022/05/12 13:02:46;;;;;;;1.02;0.90;;;27.40;99.90;;;;;;5033818;28;20228;-70
2022/05/12 13:05:18;;;;;;;1.00;1.00;;;27.30;99.90;;;;;;5032683;28;20213;-70
2022/05/12 13:07:55;;;;;;;1.02;1.00;;;27.30;99.90;;;;;;5035649;28;20291;-71
2022/05/12 13:10:22;;;;;;;0.90;0.90;;;27.20;99.90;;;;;;5037442;28;20291;-70
2022/05/12 13:12:58;;;;;;;0.93;0.93;;;26.90;99.90;;;;;;5036137;28;20236;-69
2022/05/12 13:15:26;;;;;;;0.90;0.90;;;26.80;99.90;;;;;;5035787;28;20708;-70
2022/05/12 13:17:58;;;;;;;0.95;0.95;;;26.80;99.90;;;;;;5037166;28;20236;-69
2022/05/12 13:20:33;;;;;;;0.82;0.82;;;27.00;99.90;;;;;;5036167;28;20244;-70
2022/05/12 13:23:07;;;;;;;1.48;1.00;;;27.00;99.90;;;;;;5038724;28;20256;-70
2022/05/12 13:25:37;;;;;;;0.82;0.82;;;26.90;99.90;;;;;;5042228;28;20261;-72
2022/05/12 13:28:08;;;;;;;0.95;0.95;;;27.10;99.90;;;;;;5040736;28;20213;-71
2022/05/12 13:30:38;;;;;;;1.00;0.90;;;27.10;99.90;;;;;;5040708;28;20230;-69
2022/05/12 13:33:09;;;;;;;3.35;1.20;;;27.10;99.90;;;;;;5040654;28;20232;-71